Terminal Aerodrome Forecast
Issued by NWS

Home | Current Version | Previous Version | Text Only | Print | Product List | Glossary On
Versions: 1 2 3 4 5 6 7 8 9 10 11 12 13 14
000
FTUS45 KRIW 261700 RRA
TAFJAC
TAF
KJAC 261747Z 2618/2718 VRB06KT P6SM -RASN SCT010 OVC018
     FM262200 VRB05KT P6SM VCSH BKN050
     FM270400 35007KT P6SM VCFG FEW005 BKN050
     FM271200 VRB03KT P6SM SCT060
      AMD LTD TO CLD VIS AND WIND=

USA.gov is the U.S. government's official web portal to all federal, state and local government web resources and services.